createdAt,value
2023-03-06T06:52:43.540Z,51.155888
2023-03-06T06:53:43.457Z,51.156094
2023-03-06T06:55:16.746Z,51.156143
2023-03-06T06:55:43.708Z,51.156071
2023-03-06T06:57:20.386Z,51.156075
2023-03-06T06:58:16.008Z,51.156067
2023-03-06T06:58:43.864Z,51.156063
2023-03-06T07:00:15.986Z,51.156094
2023-03-06T07:00:43.558Z,51.156059
2023-03-06T07:02:17.587Z,51.156078
2023-03-06T07:02:43.659Z,51.156055
2023-03-06T07:03:43.680Z,51.156033
2023-03-06T07:05:17.023Z,51.156101
2023-03-06T07:05:43.453Z,51.156128
2023-03-06T07:07:24.107Z,51.156082
2023-03-06T07:08:16.132Z,51.156094
2023-03-06T07:08:44.219Z,51.156124
2023-03-06T07:09:43.384Z,51.156086
2023-03-06T07:11:15.961Z,51.156090
2023-03-06T07:11:43.236Z,51.156105
2023-03-06T07:12:43.394Z,51.156086
2023-03-06T07:13:43.173Z,51.156101
2023-03-06T07:14:43.239Z,51.156094
2023-03-06T07:15:43.230Z,51.156151
2023-03-06T07:16:43.138Z,51.156097
2023-03-06T07:17:43.144Z,51.156116
2023-03-06T07:18:43.169Z,51.156097
2023-03-06T07:19:43.143Z,51.156105
2023-03-06T07:21:17.359Z,51.156086
2023-03-06T07:22:15.702Z,51.156128
2023-03-06T07:23:11.451Z,51.156170
2023-03-06T07:24:16.202Z,51.156174
2023-03-06T07:25:15.665Z,51.156178
2023-03-06T07:25:43.254Z,51.156155
2023-03-06T07:27:15.741Z,51.156151
2023-03-06T07:27:46.942Z,51.156197
2023-03-06T07:29:10.709Z,51.156185
2023-03-06T07:29:43.287Z,51.156147
2023-03-06T07:31:17.483Z,51.156132
2023-03-06T07:32:15.801Z,51.156139
2023-03-06T07:32:43.286Z,51.156151
2023-03-06T07:33:43.977Z,51.156147
2023-03-06T07:35:20.160Z,51.156143
2023-03-06T07:36:12.190Z,51.156155
2023-03-06T07:36:43.596Z,51.156094
2023-03-06T07:37:43.486Z,51.156101
2023-03-06T07:38:43.204Z,51.156101
2023-03-06T07:40:15.678Z,51.156120
2023-03-06T07:40:43.670Z,51.156136
2023-03-06T07:41:43.079Z,51.156166
2023-03-06T07:42:43.128Z,51.156105
2023-03-06T07:48:40.815Z,51.156116
2023-03-06T07:49:39.397Z,51.156113
2023-03-06T08:02:27.081Z,51.156105
2023-03-06T08:03:27.025Z,51.156151
2023-03-06T08:04:28.971Z,51.156143
2023-03-06T08:05:26.901Z,51.156155
2023-03-06T08:06:26.937Z,51.156128
2023-03-06T08:07:27.568Z,51.156143
2023-03-06T08:08:27.025Z,51.156136
2023-03-06T10:45:12.497Z,51.155975
2023-03-06T11:10:06.165Z,51.156124
2023-03-06T11:24:07.460Z,51.156155
2023-03-06T11:35:36.035Z,51.156040
2023-03-06T11:36:36.836Z,51.156075
2023-03-06T11:37:35.895Z,51.156105
2023-03-06T11:38:35.923Z,51.156094
2023-03-06T11:39:35.856Z,51.156094
2023-03-06T11:40:35.881Z,51.156128
2023-03-06T11:41:35.978Z,51.156078
2023-03-06T11:47:51.816Z,51.156105
2023-03-06T11:48:51.118Z,51.156147
2023-03-06T11:49:51.172Z,51.156052
2023-03-06T11:50:51.211Z,51.156082
2023-03-06T11:51:51.213Z,51.156120
2023-03-06T11:52:51.076Z,51.156128
2023-03-06T11:53:51.155Z,51.156101
2023-03-06T11:54:51.706Z,51.156109
2023-03-06T11:55:51.081Z,51.156124
2023-03-06T11:56:51.409Z,51.156116
2023-03-06T11:57:51.053Z,51.156113
2023-03-06T11:58:51.096Z,51.156109
2023-03-06T11:59:51.066Z,51.156090
2023-03-06T12:00:51.133Z,51.156113
2023-03-06T12:01:51.097Z,51.156147
2023-03-06T12:02:50.992Z,51.156143
2023-03-06T12:03:50.996Z,51.156139
2023-03-06T12:04:51.332Z,51.156136
2023-03-06T12:05:51.005Z,51.156128
2023-03-06T12:06:50.985Z,51.156143
2023-03-06T12:07:50.994Z,51.156151
2023-03-06T12:09:25.100Z,51.156158
2023-03-06T12:09:51.041Z,51.156162
2023-03-06T12:10:52.428Z,51.156113
2023-03-06T12:11:50.916Z,51.156067
2023-03-06T12:12:51.502Z,51.156075
2023-03-06T12:14:51.683Z,51.156113
2023-03-06T12:15:50.878Z,51.156086
2023-03-06T12:16:50.950Z,51.156063
2023-03-06T12:17:51.718Z,51.156223
2023-03-06T12:18:50.869Z,51.156162
2023-03-06T12:19:51.118Z,51.156155
2023-03-06T12:20:50.884Z,51.156139
2023-03-06T12:21:51.056Z,51.156147
2023-03-06T12:22:57.571Z,51.156155
2023-03-06T12:23:51.914Z,51.156105
2023-03-06T12:24:50.841Z,51.156185
2023-03-06T12:25:50.871Z,51.156174
2023-03-06T12:26:50.808Z,51.156101
2023-03-06T12:27:50.798Z,51.156006
2023-03-06T12:28:50.793Z,51.156078
2023-03-06T12:29:50.760Z,51.156174
2023-03-06T12:30:50.722Z,51.156120
2023-03-06T12:31:51.221Z,51.156162
2023-03-06T12:32:50.788Z,51.156181
2023-03-06T12:33:50.718Z,51.156162
2023-03-06T12:34:50.802Z,51.156120
2023-03-06T12:35:50.805Z,51.156170
2023-03-06T12:36:50.696Z,51.156208
2023-03-06T12:37:50.682Z,51.156097
2023-03-06T12:38:50.896Z,51.156231
2023-03-06T12:39:50.708Z,51.156204
2023-03-06T12:40:50.813Z,51.156158
2023-03-06T12:41:50.709Z,51.156109
2023-03-06T12:42:50.816Z,51.156132
2023-03-06T12:43:50.631Z,51.156219
2023-03-06T12:44:50.602Z,51.156254
2023-03-06T12:45:50.709Z,51.156155
2023-03-06T12:46:50.572Z,51.156166
2023-03-06T12:47:50.616Z,51.156277
2023-03-06T12:48:50.598Z,51.156139
2023-03-06T12:49:50.582Z,51.156162
2023-03-06T12:50:50.535Z,51.156189
2023-03-06T12:51:50.583Z,51.156166
2023-03-06T12:52:50.528Z,51.156155
2023-03-06T12:53:50.532Z,51.156170
2023-03-06T12:54:50.524Z,51.156181
2023-03-06T12:55:50.528Z,51.156200
2023-03-06T12:56:50.578Z,51.156181
2023-03-06T12:57:50.472Z,51.156128
2023-03-06T12:58:50.563Z,51.156109
2023-03-06T12:59:50.471Z,51.156071
2023-03-06T13:00:55.298Z,51.156097
2023-03-06T13:01:52.482Z,51.156086
2023-03-06T13:02:50.461Z,51.156010
2023-03-06T13:03:50.456Z,51.155979
2023-03-06T13:04:50.453Z,51.155994
2023-03-06T13:05:50.379Z,51.155956
2023-03-06T13:06:51.410Z,51.156052
2023-03-06T13:07:51.696Z,51.156071
2023-03-06T13:08:50.508Z,51.156044
2023-03-06T13:09:50.529Z,51.156082
2023-03-06T13:10:50.446Z,51.156101
2023-03-06T13:11:50.673Z,51.156136
2023-03-06T13:12:50.633Z,51.156101
2023-03-06T13:13:50.406Z,51.156109
2023-03-06T13:14:54.643Z,51.156116
2023-03-06T13:15:51.307Z,51.156116
2023-03-06T13:16:50.443Z,51.156136
2023-03-06T13:17:50.286Z,51.156132
2023-03-06T13:18:50.329Z,51.156094
2023-03-06T13:19:50.438Z,51.156136
2023-03-06T13:20:50.372Z,51.156124
2023-03-06T13:21:50.277Z,51.156124
2023-03-06T13:22:50.256Z,51.156109
2023-03-06T13:23:50.371Z,51.156120
2023-03-06T13:24:54.917Z,51.156147
2023-03-06T13:25:51.352Z,51.156101
2023-03-06T13:26:51.330Z,51.156105
2023-03-06T13:27:50.434Z,51.156151
2023-03-06T13:29:22.687Z,51.156124
2023-03-06T13:29:50.220Z,51.156082
2023-03-06T13:30:52.024Z,51.156124
2023-03-06T13:31:51.235Z,51.156128
2023-03-06T13:32:50.228Z,51.156136
2023-03-06T13:33:50.108Z,51.156067
2023-03-06T13:34:50.256Z,51.156071
2023-03-06T13:35:50.278Z,51.156048
2023-03-06T13:36:50.674Z,51.156097
2023-03-06T13:37:50.162Z,51.156116
2023-03-06T13:38:50.756Z,51.156120
2023-03-06T13:39:50.103Z,51.156105
2023-03-06T13:40:50.688Z,51.156002
2023-03-06T13:41:50.066Z,51.156075
2023-03-06T13:42:50.044Z,51.156097
2023-03-06T13:43:50.010Z,51.156105
2023-03-06T13:44:50.038Z,51.156113
2023-03-06T13:45:50.047Z,51.156105
2023-03-06T13:46:50.006Z,51.156105
2023-03-06T13:48:10.957Z,51.156116
2023-03-06T13:48:52.045Z,51.156124
2023-03-06T13:49:51.071Z,51.156109
2023-03-06T13:50:50.032Z,51.156097
2023-03-06T13:51:49.980Z,51.156105
2023-03-06T13:52:49.968Z,51.156101
2023-03-06T13:53:50.053Z,51.156067
2023-03-06T13:54:50.068Z,51.156090
2023-03-06T13:55:49.885Z,51.156109
2023-03-06T13:56:49.909Z,51.156101
2023-03-06T13:57:49.940Z,51.156124
2023-03-06T13:58:49.940Z,51.156113
2023-03-06T13:59:54.385Z,51.156101
2023-03-06T14:00:50.912Z,51.156128
2023-03-06T14:01:49.936Z,51.156105
2023-03-06T14:02:49.897Z,51.156105
2023-03-06T14:03:49.854Z,51.156101
2023-03-06T14:04:49.846Z,51.156097
2023-03-06T14:05:49.808Z,51.156094
2023-03-06T14:06:49.762Z,51.156124
2023-03-06T14:07:49.859Z,51.156109
2023-03-06T14:08:49.849Z,51.156116
2023-03-06T14:09:49.755Z,51.156113
2023-03-06T14:11:25.431Z,51.156116
2023-03-06T14:11:49.881Z,51.156101
2023-03-06T14:12:49.781Z,51.156097
2023-03-06T14:13:50.062Z,51.156116
2023-03-06T14:14:49.831Z,51.156162
2023-03-06T14:15:49.880Z,51.156132
2023-03-06T14:16:50.531Z,51.156097
2023-03-06T14:17:50.668Z,51.156097
2023-03-06T14:24:05.838Z,51.156063
2023-03-06T14:25:05.788Z,51.156128
2023-03-06T14:26:05.856Z,51.156158
2023-03-06T14:27:05.685Z,51.156174
2023-03-06T14:28:13.782Z,51.156158
2023-03-06T14:29:07.686Z,51.156139
2023-03-06T14:30:05.645Z,51.156136
2023-03-06T14:31:05.838Z,51.156136
2023-03-06T14:32:05.634Z,51.156136
2023-03-06T14:33:05.659Z,51.156120
2023-03-06T14:34:05.650Z,51.156120
2023-03-06T14:35:05.701Z,51.156124
2023-03-06T14:36:08.262Z,51.156132
2023-03-06T14:37:05.653Z,51.156116
2023-03-06T14:38:05.849Z,51.156124
2023-03-06T14:39:05.661Z,51.156116
2023-03-06T14:40:05.645Z,51.156124
2023-03-06T14:41:05.604Z,51.156124
2023-03-06T14:42:05.632Z,51.156132
2023-03-06T14:43:05.537Z,51.156147
2023-03-06T14:44:05.585Z,51.156132
2023-03-06T14:45:05.619Z,51.156082
2023-03-06T14:46:05.620Z,51.156086
2023-03-06T14:47:06.543Z,51.156082
2023-03-06T14:48:05.490Z,51.156071
2023-03-06T14:49:05.662Z,51.156059
2023-03-06T14:50:05.517Z,51.156040
2023-03-06T14:51:05.569Z,51.156063
2023-03-06T14:52:05.478Z,51.156063
2023-03-06T14:53:05.521Z,51.156063
2023-03-06T14:54:05.450Z,51.156120
2023-03-06T14:55:05.569Z,51.156120
2023-03-06T14:56:06.285Z,51.156097
2023-03-06T14:57:06.503Z,51.156075
2023-03-06T14:58:05.493Z,51.156040
2023-03-06T14:59:05.471Z,51.156067
2023-03-06T15:00:05.438Z,51.156090
2023-03-06T15:01:05.533Z,51.156078
2023-03-06T15:02:05.458Z,51.156086
2023-03-06T15:03:05.403Z,51.156120
2023-03-06T15:04:05.353Z,51.156162
2023-03-06T15:05:05.368Z,51.156139
2023-03-06T15:06:05.450Z,51.156155
2023-03-06T15:07:05.372Z,51.156147
2023-03-06T15:08:05.388Z,51.156166
2023-03-06T15:09:07.607Z,51.156139
2023-03-06T15:10:06.585Z,51.156059
2023-03-06T15:11:05.308Z,51.156090
2023-03-06T15:12:05.261Z,51.156094
2023-03-06T15:13:05.299Z,51.156105
2023-03-06T15:14:05.355Z,51.156116
2023-03-06T15:15:05.328Z,51.156139
2023-03-06T15:16:05.323Z,51.156143
2023-03-06T15:17:06.186Z,51.156136
2023-03-06T15:18:05.248Z,51.156124
2023-03-06T15:19:05.238Z,51.156113
2023-03-06T15:20:05.251Z,51.156101
2023-03-06T15:21:39.026Z,51.156120
2023-03-06T15:22:05.421Z,51.156132
2023-03-06T15:23:05.239Z,51.156132
2023-03-06T15:24:05.412Z,51.156113
2023-03-06T15:25:05.184Z,51.156116
2023-03-06T15:26:05.189Z,51.156109
2023-03-06T15:27:05.066Z,51.156078
2023-03-06T15:28:05.101Z,51.156094
2023-03-06T15:29:09.370Z,51.156116
2023-03-06T15:30:06.276Z,51.156078
2023-03-06T15:31:05.969Z,51.156075
2023-03-06T15:32:05.139Z,51.156158
2023-03-06T15:33:05.080Z,51.156143
2023-03-06T15:34:05.136Z,51.156113
2023-03-06T15:35:05.156Z,51.156113
2023-03-06T15:36:05.086Z,51.156094
2023-03-06T15:37:05.036Z,51.156116
2023-03-06T15:38:05.023Z,51.156105
2023-03-06T15:39:05.064Z,51.156155
2023-03-06T15:40:05.174Z,51.156181
2023-03-06T15:41:05.013Z,51.156170
2023-03-06T15:42:06.072Z,51.156151
2023-03-06T15:43:06.033Z,51.156139
2023-03-06T15:44:04.982Z,51.156143
2023-03-06T15:45:05.036Z,51.156113
2023-03-06T15:46:05.057Z,51.156101
2023-03-06T15:47:09.203Z,51.156094
2023-03-06T15:48:05.896Z,51.156116
2023-03-06T15:49:04.909Z,51.156120
2023-03-06T15:50:04.912Z,51.156109
2023-03-06T15:51:04.963Z,51.156097
2023-03-06T15:52:04.909Z,51.156113
2023-03-06T15:53:04.870Z,51.156006
2023-03-06T15:54:12.373Z,51.156067
2023-03-06T15:55:06.845Z,51.156147
2023-03-06T15:56:04.845Z,51.156094
2023-03-06T15:57:04.824Z,51.156193
2023-03-06T15:58:04.781Z,51.156078
2023-03-06T15:59:04.772Z,51.156067
2023-03-06T16:00:05.551Z,51.156128
2023-03-06T16:01:04.840Z,51.156086
2023-03-06T16:02:04.860Z,51.156090
2023-03-06T16:03:04.808Z,51.156044
2023-03-06T16:04:04.818Z,51.156105
2023-03-06T16:05:04.722Z,51.156128
2023-03-06T16:06:04.762Z,51.156101
2023-03-06T16:07:04.735Z,51.156170
2023-03-06T16:08:04.750Z,51.156109
2023-03-06T16:09:04.703Z,51.156113
2023-03-06T16:10:04.794Z,51.156055
2023-03-06T16:11:04.705Z,51.156128
2023-03-06T16:12:04.654Z,51.156151
2023-03-06T16:13:04.660Z,51.156109
2023-03-06T16:14:04.640Z,51.156109
2023-03-06T16:15:05.418Z,51.156113
2023-03-06T16:16:04.680Z,51.156113
2023-03-06T16:17:04.637Z,51.156094
2023-03-06T16:18:04.609Z,51.156086
2023-03-06T16:19:06.069Z,51.156101
2023-03-06T16:20:04.648Z,51.156067
2023-03-06T16:21:04.598Z,51.156097
2023-03-06T16:22:04.582Z,51.156124
2023-03-06T16:23:04.637Z,51.156113
2023-03-06T16:24:04.564Z,51.156025
2023-03-06T16:25:04.496Z,51.156052
2023-03-06T16:26:04.677Z,51.156101
2023-03-06T16:27:04.527Z,51.156017
2023-03-06T16:28:04.521Z,51.156048
2023-03-06T16:29:04.535Z,51.156063
2023-03-06T16:30:04.531Z,51.156075
2023-03-06T16:31:04.626Z,51.156059
2023-03-06T16:32:04.518Z,51.156055
2023-03-06T16:33:04.477Z,51.156078
2023-03-06T16:34:04.463Z,51.156109
2023-03-06T16:35:04.433Z,51.156033
2023-03-06T16:36:04.537Z,51.156033
2023-03-06T16:37:04.395Z,51.156055
2023-03-06T16:38:04.455Z,51.156055
2023-03-06T16:39:04.463Z,51.156033
2023-03-06T16:40:04.462Z,51.156040
2023-03-06T16:41:04.425Z,51.156090
2023-03-06T16:42:04.404Z,51.156078
2023-03-06T16:43:04.390Z,51.156097
2023-03-06T16:44:04.350Z,51.156116
2023-03-06T16:45:04.422Z,51.156132
2023-03-06T16:46:04.419Z,51.156063
2023-03-06T16:47:05.232Z,51.156078
2023-03-06T16:48:04.363Z,51.156101
2023-03-06T16:49:04.353Z,51.156075
2023-03-06T16:50:04.409Z,51.156086
2023-03-06T16:51:04.328Z,51.156094
2023-03-06T16:52:04.327Z,51.156090
2023-03-06T16:53:04.334Z,51.156097
2023-03-06T16:54:04.250Z,51.156120
2023-03-06T16:55:04.264Z,51.156090
2023-03-06T16:56:04.263Z,51.156090
2023-03-06T16:57:04.274Z,51.156063
2023-03-06T16:58:04.216Z,51.156021
2023-03-06T16:59:04.861Z,51.156040
2023-03-06T17:00:04.205Z,51.156071
2023-03-06T17:01:04.284Z,51.156055
2023-03-06T17:02:04.189Z,51.156029
2023-03-06T17:03:04.156Z,51.156071
2023-03-06T17:04:04.131Z,51.156116
2023-03-06T17:05:04.251Z,51.156052
2023-03-06T17:06:04.504Z,51.156097
2023-03-06T17:07:04.109Z,51.156101
2023-03-06T17:08:04.198Z,51.156075
2023-03-06T17:09:04.132Z,51.156181
2023-03-06T17:10:04.218Z,51.156174
2023-03-06T17:11:04.126Z,51.156105
2023-03-06T17:12:04.159Z,51.156113
2023-03-06T17:13:04.090Z,51.156120
2023-03-06T17:14:04.088Z,51.156151
2023-03-06T17:15:04.116Z,51.156151
2023-03-06T17:16:04.159Z,51.156109
2023-03-06T17:17:04.124Z,51.156128
2023-03-06T17:18:04.040Z,51.156094
2023-03-06T17:19:04.073Z,51.156090
2023-03-06T17:20:04.042Z,51.156075
2023-03-06T17:21:04.000Z,51.156063
2023-03-06T17:22:04.966Z,51.156082
2023-03-06T17:23:04.095Z,51.156090
2023-03-06T17:24:04.038Z,51.156097
2023-03-06T17:25:04.115Z,51.156105
2023-03-06T17:26:04.091Z,51.156067
2023-03-06T17:27:36.526Z,51.156036
2023-03-06T17:28:04.224Z,51.156052
2023-03-06T17:29:06.925Z,51.156059
2023-03-06T17:30:36.439Z,51.156075
2023-03-06T17:31:04.446Z,51.156075
2023-03-06T17:38:51.080Z,51.156166
2023-03-06T17:47:32.768Z,51.156116
2023-03-06T17:48:32.837Z,51.156128
2023-03-06T17:49:32.657Z,51.156075
2023-03-06T17:50:00.295Z,51.156048
2023-03-06T17:51:34.564Z,51.156105
2023-03-06T17:52:32.859Z,51.156151
2023-03-06T17:53:33.278Z,51.156116
2023-03-06T17:54:32.559Z,51.156113
2023-03-06T18:03:46.906Z,51.156075
2023-03-06T18:04:46.983Z,51.156059
2023-03-06T18:05:46.670Z,51.156090
2023-03-06T18:06:46.684Z,51.156071
2023-03-06T18:07:46.650Z,51.156082
2023-03-06T18:08:46.644Z,51.156086
2023-03-06T18:09:46.706Z,51.156078
2023-03-06T18:10:46.623Z,51.156059
2023-03-06T18:11:46.717Z,51.156075
2023-03-06T18:12:46.604Z,51.156082
2023-03-06T18:13:46.785Z,51.156078
2023-03-06T18:14:46.690Z,51.156109
2023-03-06T18:16:20.450Z,51.156075
2023-03-06T18:17:19.067Z,51.156082
2023-03-06T18:18:19.267Z,51.156067
2023-03-06T18:19:20.026Z,51.156086
2023-03-06T18:20:19.025Z,51.156109
2023-03-06T18:20:47.296Z,51.156029
2023-03-06T18:35:17.706Z,51.156418
2023-03-06T19:00:54.633Z,51.156235
2023-03-06T19:01:54.633Z,51.156197
2023-03-06T19:02:54.597Z,51.156410
2023-03-06T19:04:01.334Z,51.156433
2023-03-06T19:04:54.582Z,51.156437
2023-03-06T19:05:54.538Z,51.156593
2023-03-06T19:06:54.700Z,51.156727
2023-03-06T19:07:54.520Z,51.156681
2023-03-06T19:08:54.562Z,51.156570
2023-03-06T19:09:54.514Z,51.156395
2023-03-06T19:10:54.506Z,51.156269
2023-03-06T19:11:55.003Z,51.156174
2023-03-06T19:12:55.504Z,51.156128
2023-03-06T19:13:54.550Z,51.156197
2023-03-06T19:14:54.534Z,51.156155
2023-03-06T19:15:54.623Z,51.156162
2023-03-06T19:16:54.511Z,51.156113
2023-03-06T19:17:54.452Z,51.156139
2023-03-06T19:18:54.446Z,51.156067
2023-03-06T19:19:54.439Z,51.156055
2023-03-06T19:20:54.405Z,51.156059
2023-03-06T19:21:54.472Z,51.156036
2023-03-06T19:22:54.522Z,51.156105
2023-03-06T19:23:54.547Z,51.156128
2023-03-06T19:24:54.429Z,51.156143
2023-03-06T19:25:54.448Z,51.156113
2023-03-06T19:26:54.391Z,51.156113
2023-03-06T19:27:54.408Z,51.156055
2023-03-06T19:28:54.359Z,51.156052
2023-03-06T19:29:55.037Z,51.156094
2023-03-06T19:30:54.403Z,51.156094
2023-03-06T19:31:54.431Z,51.156116
2023-03-06T19:32:54.394Z,51.156113
2023-03-06T19:33:54.321Z,51.156124
2023-03-06T19:34:54.359Z,51.156063
2023-03-06T19:35:54.306Z,51.156132
2023-03-06T19:36:54.340Z,51.156052
2023-03-06T19:37:54.279Z,51.156124
2023-03-06T19:38:54.350Z,51.156136
2023-03-06T19:39:54.382Z,51.156086
2023-03-06T19:40:54.268Z,51.156063
2023-03-06T19:41:54.337Z,51.156078
2023-03-06T19:42:54.317Z,51.156090
2023-03-06T19:43:54.245Z,51.156101
2023-03-06T19:45:02.323Z,51.156082
2023-03-06T19:45:56.337Z,51.156036
2023-03-06T19:46:54.357Z,51.156059
2023-03-06T19:47:54.257Z,51.156082
2023-03-06T19:48:54.283Z,51.156075
2023-03-06T19:49:54.177Z,51.156116
2023-03-06T19:50:54.204Z,51.156033
2023-03-06T19:51:54.151Z,51.156063
2023-03-06T19:53:26.766Z,51.156101
2023-03-06T19:53:54.377Z,51.156124
2023-03-06T19:54:54.493Z,51.156120
2023-03-06T19:55:54.085Z,51.156075
2023-03-06T19:56:54.149Z,51.156055
2023-03-06T19:57:54.074Z,51.156105
2023-03-06T19:58:54.130Z,51.156178
2023-03-06T19:59:54.278Z,51.156086
2023-03-06T20:00:54.102Z,51.156136
2023-03-06T20:01:54.073Z,51.156082
2023-03-06T20:02:54.069Z,51.156055
2023-03-06T20:03:55.076Z,51.156082
2023-03-06T20:04:57.270Z,51.156094
2023-03-06T20:06:16.793Z,51.156078
2023-03-06T20:06:57.307Z,51.156086
2023-03-06T20:10:20.695Z,51.156105
2023-03-06T20:10:22.633Z,51.156105
2023-03-06T20:20:04.448Z,51.155907
2023-03-06T20:20:58.994Z,51.155918
2023-03-06T20:21:59.072Z,51.155914
2023-03-06T20:22:58.981Z,51.155956
2023-03-06T20:23:59.229Z,51.156013
2023-03-06T20:24:58.940Z,51.156227
2023-03-06T20:25:58.943Z,51.156174
2023-03-06T20:26:59.012Z,51.156345
2023-03-06T20:27:58.896Z,51.156261
2023-03-06T20:28:59.005Z,51.156261
2023-03-06T20:29:59.028Z,51.156273
2023-03-06T20:30:59.059Z,51.156254
2023-03-06T20:31:59.377Z,51.156116
2023-03-06T20:32:58.868Z,51.156094
2023-03-06T20:33:58.902Z,51.156116
2023-03-06T20:34:58.960Z,51.155941
2023-03-06T20:35:58.909Z,51.156078
2023-03-06T20:36:58.924Z,51.156185
2023-03-06T20:37:58.819Z,51.156292
2023-03-06T20:38:58.870Z,51.156410
2023-03-06T20:39:58.815Z,51.156143
2023-03-06T20:40:58.829Z,51.156391
2023-03-06T20:41:58.758Z,51.156170
2023-03-06T20:42:58.744Z,51.156273
2023-03-06T20:43:58.794Z,51.156414
2023-03-06T20:44:58.785Z,51.156582
2023-03-06T20:45:58.843Z,51.156460
2023-03-06T20:46:58.760Z,51.156330
2023-03-06T20:47:58.680Z,51.155975
2023-03-06T20:48:58.677Z,51.156059
2023-03-06T20:49:58.733Z,51.156158
2023-03-06T20:50:58.752Z,51.156158
2023-03-06T20:51:58.698Z,51.156216
2023-03-06T20:52:58.731Z,51.156212
2023-03-06T20:53:58.792Z,51.156155
2023-03-06T20:54:58.630Z,51.156025
2023-03-06T20:55:58.606Z,51.156010
2023-03-06T20:56:58.673Z,51.156189
2023-03-06T20:57:58.625Z,51.156143
2023-03-06T20:58:58.711Z,51.156113
2023-03-06T20:59:59.593Z,51.156170
2023-03-06T21:00:59.538Z,51.156174
2023-03-06T21:01:58.689Z,51.156113
2023-03-06T21:02:58.584Z,51.156078
2023-03-06T21:03:58.525Z,51.156105
2023-03-06T21:04:58.638Z,51.156109
2023-03-06T21:05:58.577Z,51.156105
2023-03-06T21:06:58.661Z,51.156097
2023-03-06T21:07:58.536Z,51.156109
2023-03-06T21:08:58.797Z,51.156078
2023-03-06T21:09:58.552Z,51.156143
2023-03-06T21:10:58.596Z,51.156067
2023-03-06T21:11:58.662Z,51.156094
2023-03-06T21:12:58.634Z,51.156078
2023-03-06T21:13:58.661Z,51.156075
2023-03-06T21:14:58.754Z,51.156086
2023-03-06T21:15:58.537Z,51.156116
2023-03-06T21:16:58.463Z,51.156105
2023-03-06T21:17:59.269Z,51.156086
2023-03-06T21:18:58.385Z,51.156101
2023-03-06T21:19:58.421Z,51.156090
2023-03-06T21:20:58.380Z,51.156067
2023-03-06T21:21:58.554Z,51.156086
2023-03-06T21:22:58.542Z,51.156071
2023-03-06T21:23:58.474Z,51.156094
2023-03-06T21:24:58.447Z,51.156116
2023-03-06T21:25:58.430Z,51.156109
2023-03-06T21:26:58.701Z,51.156105
2023-03-06T21:27:58.314Z,51.156067
2023-03-06T21:28:58.310Z,51.156113
2023-03-06T21:29:58.416Z,51.156082
2023-03-06T21:30:58.363Z,51.156101
2023-03-06T21:31:58.310Z,51.156139
2023-03-06T21:32:59.531Z,51.156090
2023-03-06T21:33:58.322Z,51.156059
2023-03-06T21:35:00.157Z,51.156082
2023-03-06T21:35:58.413Z,51.156090
2023-03-06T21:36:58.279Z,51.156075
2023-03-06T21:37:58.319Z,51.156067
2023-03-06T21:38:59.594Z,51.156067
2023-03-06T21:39:58.238Z,51.156097
2023-03-06T21:41:13.434Z,51.156090
2023-03-06T21:41:58.486Z,51.156067
2023-03-06T21:42:58.165Z,51.156094
2023-03-06T21:43:58.194Z,51.156078
2023-03-06T21:44:58.650Z,51.156067
2023-03-06T21:45:58.331Z,51.156071
2023-03-06T21:46:58.188Z,51.156071
2023-03-06T21:47:58.178Z,51.156105
2023-03-06T21:48:58.694Z,51.156101
2023-03-06T21:49:58.269Z,51.156086
2023-03-06T21:50:58.257Z,51.156075
2023-03-06T21:51:58.117Z,51.156075
2023-03-06T21:52:58.237Z,51.156055
2023-03-06T21:53:58.134Z,51.156071
2023-03-06T21:54:58.138Z,51.156063
2023-03-06T21:55:58.066Z,51.156090
2023-03-06T21:56:59.079Z,51.156128
2023-03-06T21:57:58.030Z,51.156075
2023-03-06T21:58:58.038Z,51.156101
2023-03-06T21:59:58.098Z,51.156124
2023-03-06T22:00:58.092Z,51.156094
2023-03-06T22:01:58.354Z,51.156116
2023-03-06T22:02:58.042Z,51.156101
2023-03-06T22:03:58.751Z,51.156109
2023-03-06T22:04:58.081Z,51.156078
2023-03-06T22:05:57.931Z,51.156078
2023-03-06T22:06:57.968Z,51.156075
2023-03-06T22:07:58.020Z,51.156090
2023-03-06T22:08:57.926Z,51.156097
2023-03-06T22:09:57.943Z,51.156109
2023-03-06T22:10:58.328Z,51.156094
2023-03-06T22:11:57.874Z,51.156113
2023-03-06T22:12:57.904Z,51.156181
2023-03-06T22:13:57.928Z,51.156132
2023-03-06T22:14:57.869Z,51.156105
2023-03-06T22:15:57.911Z,51.156090
2023-03-06T22:16:57.968Z,51.156067
2023-03-06T22:17:58.854Z,51.156071
2023-03-06T22:18:57.830Z,51.156090
2023-03-06T22:19:57.882Z,51.156071
2023-03-06T22:20:57.757Z,51.156067
2023-03-06T22:21:57.799Z,51.156094
2023-03-06T22:22:57.867Z,51.156105
2023-03-06T22:23:58.025Z,51.156128
2023-03-06T22:24:57.753Z,51.156124
2023-03-06T22:25:57.758Z,51.156101
2023-03-06T22:26:57.758Z,51.156094
2023-03-06T22:27:57.849Z,51.156109
2023-03-06T22:28:57.784Z,51.156116
2023-03-06T22:29:57.763Z,51.156120
2023-03-06T22:30:57.824Z,51.156128
2023-03-06T22:31:57.779Z,51.156128
2023-03-06T22:32:57.692Z,51.156132
2023-03-06T22:33:57.737Z,51.156128
2023-03-06T22:34:57.835Z,51.156063
2023-03-06T22:35:57.798Z,51.156158
2023-03-06T22:36:57.659Z,51.156109
2023-03-06T22:37:57.829Z,51.156067
2023-03-06T22:38:57.682Z,51.156105
2023-03-06T22:39:57.648Z,51.156120
2023-03-06T22:40:57.710Z,51.156109
2023-03-06T22:41:57.891Z,51.156128
2023-03-06T22:42:57.660Z,51.156120
2023-03-06T22:43:57.638Z,51.156101
2023-03-06T22:44:57.711Z,51.156052
2023-03-06T22:45:57.540Z,51.156067
2023-03-06T22:46:57.589Z,51.156044
2023-03-06T22:48:10.141Z,51.156082
2023-03-06T22:48:59.626Z,51.156090
2023-03-06T22:49:57.510Z,51.156063
2023-03-06T22:50:57.505Z,51.156044
2023-03-06T22:51:57.528Z,51.156036
2023-03-06T22:52:57.619Z,51.156033
2023-03-06T22:53:57.428Z,51.156036
2023-03-06T22:54:57.496Z,51.156071
2023-03-06T22:55:57.454Z,51.156063
2023-03-06T22:56:57.514Z,51.156101
2023-03-06T22:57:57.444Z,51.156113
2023-03-06T22:58:57.420Z,51.156055
2023-03-06T22:59:57.494Z,51.156055
2023-03-06T23:00:57.426Z,51.156101
2023-03-06T23:01:57.401Z,51.156097
2023-03-06T23:02:57.473Z,51.156124
2023-03-06T23:03:57.462Z,51.156162
2023-03-06T23:04:57.423Z,51.156178
2023-03-06T23:05:57.654Z,51.156193
2023-03-06T23:06:57.382Z,51.156120
2023-03-06T23:07:57.654Z,51.156086
2023-03-06T23:08:57.578Z,51.156082
2023-03-06T23:09:57.292Z,51.156094
2023-03-06T23:10:57.507Z,51.156075
2023-03-06T23:11:58.087Z,51.156094
2023-03-06T23:12:57.889Z,51.156132
2023-03-06T23:13:58.252Z,51.156109
2023-03-06T23:14:57.606Z,51.156086
2023-03-06T23:15:57.391Z,51.156097
2023-03-06T23:16:57.376Z,51.156128
2023-03-06T23:17:58.237Z,51.156113
2023-03-06T23:18:57.741Z,51.156132